sensor_id;sensor_type;location;lat;lon;timestamp;P1;durP1;ratioP1;P2;durP2;ratioP2
69463;SDS011;56665;41.106;16.688;2022-09-09T00:01:37;14.60;;;8.38;;
69463;SDS011;56665;41.106;16.688;2022-09-09T00:04:42;13.05;;;8.15;;
69463;SDS011;56665;41.106;16.688;2022-09-09T00:07:50;15.98;;;8.60;;
69463;SDS011;56665;41.106;16.688;2022-09-09T00:10:58;14.40;;;8.70;;
69463;SDS011;56665;41.106;16.688;2022-09-09T00:14:06;12.63;;;8.32;;
69463;SDS011;56665;41.106;16.688;2022-09-09T00:23:57;16.42;;;8.45;;
69463;SDS011;56665;41.106;16.688;2022-09-09T00:27:07;15.48;;;8.73;;
69463;SDS011;56665;41.106;16.688;2022-09-09T00:30:24;13.38;;;8.23;;
69463;SDS011;56665;41.106;16.688;2022-09-09T00:33:30;15.25;;;8.48;;
69463;SDS011;56665;41.106;16.688;2022-09-09T00:36:35;14.77;;;8.48;;
69463;SDS011;56665;41.106;16.688;2022-09-09T00:39:44;13.20;;;8.55;;
69463;SDS011;56665;41.106;16.688;2022-09-09T00:42:53;14.95;;;8.82;;
69463;SDS011;56665;41.106;16.688;2022-09-09T00:53:19;15.68;;;9.43;;
69463;SDS011;56665;41.106;16.688;2022-09-09T00:56:37;14.52;;;8.73;;
69463;SDS011;56665;41.106;16.688;2022-09-09T00:59:46;16.45;;;9.13;;
69463;SDS011;56665;41.106;16.688;2022-09-09T01:12:58;17.05;;;10.52;;
69463;SDS011;56665;41.106;16.688;2022-09-09T01:16:08;15.15;;;10.10;;
69463;SDS011;56665;41.106;16.688;2022-09-09T01:19:20;14.35;;;9.55;;
69463;SDS011;56665;41.106;16.688;2022-09-09T01:29:24;20.63;;;11.65;;
69463;SDS011;56665;41.106;16.688;2022-09-09T01:32:42;17.30;;;9.63;;
69463;SDS011;56665;41.106;16.688;2022-09-09T01:35:55;16.80;;;9.77;;
69463;SDS011;56665;41.106;16.688;2022-09-09T01:39:07;16.02;;;10.20;;
69463;SDS011;56665;41.106;16.688;2022-09-09T01:42:13;17.83;;;10.35;;
69463;SDS011;56665;41.106;16.688;2022-09-09T01:45:19;19.83;;;10.88;;
69463;SDS011;56665;41.106;16.688;2022-09-09T01:48:24;19.65;;;10.40;;
69463;SDS011;56665;41.106;16.688;2022-09-09T01:51:38;16.63;;;10.43;;
69463;SDS011;56665;41.106;16.688;2022-09-09T01:54:47;18.80;;;10.48;;
69463;SDS011;56665;41.106;16.688;2022-09-09T02:01:46;15.93;;;10.27;;
69463;SDS011;56665;41.106;16.688;2022-09-09T02:05:10;16.88;;;10.20;;
69463;SDS011;56665;41.106;16.688;2022-09-09T02:11:50;17.77;;;11.10;;
69463;SDS011;56665;41.106;16.688;2022-09-09T02:15:22;14.95;;;9.63;;
69463;SDS011;56665;41.106;16.688;2022-09-09T02:19:15;16.95;;;10.10;;
69463;SDS011;56665;41.106;16.688;2022-09-09T02:22:06;15.40;;;10.15;;
69463;SDS011;56665;41.106;16.688;2022-09-09T02:25:10;15.27;;;10.25;;
69463;SDS011;56665;41.106;16.688;2022-09-09T02:28:19;20.73;;;10.25;;
69463;SDS011;56665;41.106;16.688;2022-09-09T02:31:27;15.90;;;10.25;;
69463;SDS011;56665;41.106;16.688;2022-09-09T02:34:39;16.58;;;9.90;;
69463;SDS011;56665;41.106;16.688;2022-09-09T02:37:46;16.33;;;10.45;;
69463;SDS011;56665;41.106;16.688;2022-09-09T02:40:50;18.20;;;10.80;;
69463;SDS011;56665;41.106;16.688;2022-09-09T02:43:55;19.05;;;10.57;;
69463;SDS011;56665;41.106;16.688;2022-09-09T02:47:08;17.42;;;10.48;;
69463;SDS011;56665;41.106;16.688;2022-09-09T02:50:20;16.95;;;10.02;;
69463;SDS011;56665;41.106;16.688;2022-09-09T02:53:36;18.10;;;10.10;;
69463;SDS011;56665;41.106;16.688;2022-09-09T02:56:49;17.30;;;10.40;;
69463;SDS011;56665;41.106;16.688;2022-09-09T02:59:59;20.40;;;11.25;;
69463;SDS011;56665;41.106;16.688;2022-09-09T03:03:04;18.08;;;10.63;;
69463;SDS011;56665;41.106;16.688;2022-09-09T03:06:09;17.70;;;10.40;;
69463;SDS011;56665;41.106;16.688;2022-09-09T03:09:16;18.52;;;11.27;;
69463;SDS011;56665;41.106;16.688;2022-09-09T03:12:20;21.55;;;10.73;;
69463;SDS011;56665;41.106;16.688;2022-09-09T03:15:25;19.00;;;11.68;;
69463;SDS011;56665;41.106;16.688;2022-09-09T03:18:33;16.00;;;11.48;;
69463;SDS011;56665;41.106;16.688;2022-09-09T03:21:37;19.73;;;11.10;;
69463;SDS011;56665;41.106;16.688;2022-09-09T03:24:42;15.90;;;10.32;;
69463;SDS011;56665;41.106;16.688;2022-09-09T03:27:46;16.83;;;10.82;;
69463;SDS011;56665;41.106;16.688;2022-09-09T03:30:50;15.23;;;10.35;;
69463;SDS011;56665;41.106;16.688;2022-09-09T03:33:54;19.20;;;10.95;;
69463;SDS011;56665;41.106;16.688;2022-09-09T03:36:58;19.75;;;11.00;;
69463;SDS011;56665;41.106;16.688;2022-09-09T03:40:03;18.13;;;10.32;;
69463;SDS011;56665;41.106;16.688;2022-09-09T03:43:07;17.60;;;10.65;;
69463;SDS011;56665;41.106;16.688;2022-09-09T03:46:11;14.68;;;10.27;;
69463;SDS011;56665;41.106;16.688;2022-09-09T03:49:16;17.45;;;10.15;;
69463;SDS011;56665;41.106;16.688;2022-09-09T03:52:20;16.50;;;10.43;;
69463;SDS011;56665;41.106;16.688;2022-09-09T03:55:25;15.95;;;10.15;;
69463;SDS011;56665;41.106;16.688;2022-09-09T03:58:29;15.68;;;10.30;;
69463;SDS011;56665;41.106;16.688;2022-09-09T04:01:39;18.38;;;10.13;;
69463;SDS011;56665;41.106;16.688;2022-09-09T04:04:43;14.93;;;9.82;;
69463;SDS011;56665;41.106;16.688;2022-09-09T04:07:47;18.05;;;9.77;;
69463;SDS011;56665;41.106;16.688;2022-09-09T04:10:51;13.95;;;9.52;;
69463;SDS011;56665;41.106;16.688;2022-09-09T04:13:56;16.58;;;10.82;;
69463;SDS011;56665;41.106;16.688;2022-09-09T04:16:59;13.05;;;9.80;;
69463;SDS011;56665;41.106;16.688;2022-09-09T04:20:04;18.50;;;10.15;;
69463;SDS011;56665;41.106;16.688;2022-09-09T04:23:09;13.43;;;9.80;;
69463;SDS011;56665;41.106;16.688;2022-09-09T04:26:12;20.05;;;10.25;;
69463;SDS011;56665;41.106;16.688;2022-09-09T04:29:17;15.45;;;10.27;;
69463;SDS011;56665;41.106;16.688;2022-09-09T04:32:21;17.33;;;10.73;;
69463;SDS011;56665;41.106;16.688;2022-09-09T04:35:25;15.27;;;11.00;;
69463;SDS011;56665;41.106;16.688;2022-09-09T04:38:30;19.85;;;11.18;;
69463;SDS011;56665;41.106;16.688;2022-09-09T04:41:34;18.08;;;10.13;;
69463;SDS011;56665;41.106;16.688;2022-09-09T04:44:38;14.98;;;10.23;;
69463;SDS011;56665;41.106;16.688;2022-09-09T04:47:43;50.75;;;13.77;;
69463;SDS011;56665;41.106;16.688;2022-09-09T04:51:00;62.13;;;15.00;;
69463;SDS011;56665;41.106;16.688;2022-09-09T04:54:08;46.72;;;21.23;;
69463;SDS011;56665;41.106;16.688;2022-09-09T04:57:13;40.58;;;21.02;;
69463;SDS011;56665;41.106;16.688;2022-09-09T05:00:17;51.72;;;34.67;;
69463;SDS011;56665;41.106;16.688;2022-09-09T05:03:22;49.13;;;27.30;;
69463;SDS011;56665;41.106;16.688;2022-09-09T05:06:26;43.63;;;19.45;;
69463;SDS011;56665;41.106;16.688;2022-09-09T05:09:33;36.53;;;16.98;;
69463;SDS011;56665;41.106;16.688;2022-09-09T05:12:38;28.45;;;15.10;;
69463;SDS011;56665;41.106;16.688;2022-09-09T05:15:42;23.58;;;13.77;;
69463;SDS011;56665;41.106;16.688;2022-09-09T05:18:55;25.27;;;12.70;;
69463;SDS011;56665;41.106;16.688;2022-09-09T05:21:59;28.75;;;12.57;;
69463;SDS011;56665;41.106;16.688;2022-09-09T05:25:12;26.17;;;10.98;;
69463;SDS011;56665;41.106;16.688;2022-09-09T05:28:16;26.30;;;11.48;;
69463;SDS011;56665;41.106;16.688;2022-09-09T05:31:20;21.90;;;9.63;;
69463;SDS011;56665;41.106;16.688;2022-09-09T05:34:27;19.23;;;8.93;;
69463;SDS011;56665;41.106;16.688;2022-09-09T05:37:31;14.70;;;7.40;;
69463;SDS011;56665;41.106;16.688;2022-09-09T05:40:35;17.15;;;7.57;;
69463;SDS011;56665;41.106;16.688;2022-09-09T05:43:41;18.40;;;7.03;;
69463;SDS011;56665;41.106;16.688;2022-09-09T05:46:48;16.58;;;6.50;;
69463;SDS011;56665;41.106;16.688;2022-09-09T05:49:54;16.52;;;6.72;;
69463;SDS011;56665;41.106;16.688;2022-09-09T05:52:59;24.85;;;6.88;;
69463;SDS011;56665;41.106;16.688;2022-09-09T05:56:03;13.88;;;6.70;;
69463;SDS011;56665;41.106;16.688;2022-09-09T05:59:11;17.33;;;6.80;;
69463;SDS011;56665;41.106;16.688;2022-09-09T06:02:16;18.80;;;6.53;;
69463;SDS011;56665;41.106;16.688;2022-09-09T06:05:20;14.48;;;7.05;;
69463;SDS011;56665;41.106;16.688;2022-09-09T06:08:26;17.65;;;7.07;;
69463;SDS011;56665;41.106;16.688;2022-09-09T06:11:30;23.30;;;7.57;;
69463;SDS011;56665;41.106;16.688;2022-09-09T06:14:36;17.70;;;6.70;;
69463;SDS011;56665;41.106;16.688;2022-09-09T06:17:40;16.92;;;5.60;;
69463;SDS011;56665;41.106;16.688;2022-09-09T06:20:57;17.05;;;6.53;;
69463;SDS011;56665;41.106;16.688;2022-09-09T06:24:04;14.50;;;5.15;;
69463;SDS011;56665;41.106;16.688;2022-09-09T06:27:08;15.07;;;4.90;;
69463;SDS011;56665;41.106;16.688;2022-09-09T06:30:14;13.60;;;4.65;;
69463;SDS011;56665;41.106;16.688;2022-09-09T06:33:18;13.80;;;4.30;;
69463;SDS011;56665;41.106;16.688;2022-09-09T06:36:24;17.50;;;4.70;;
69463;SDS011;56665;41.106;16.688;2022-09-09T06:39:30;13.75;;;4.00;;
69463;SDS011;56665;41.106;16.688;2022-09-09T06:42:34;14.93;;;4.55;;
69463;SDS011;56665;41.106;16.688;2022-09-09T06:45:56;18.27;;;4.28;;
69463;SDS011;56665;41.106;16.688;2022-09-09T06:49:04;18.75;;;4.35;;
69463;SDS011;56665;41.106;16.688;2022-09-09T06:52:08;17.02;;;4.18;;
69463;SDS011;56665;41.106;16.688;2022-09-09T06:55:13;13.73;;;3.78;;
69463;SDS011;56665;41.106;16.688;2022-09-09T06:58:19;18.50;;;3.95;;
69463;SDS011;56665;41.106;16.688;2022-09-09T07:01:27;17.05;;;3.65;;
69463;SDS011;56665;41.106;16.688;2022-09-09T07:04:36;10.82;;;3.45;;
69463;SDS011;56665;41.106;16.688;2022-09-09T07:07:41;17.88;;;4.18;;
69463;SDS011;56665;41.106;16.688;2022-09-09T07:10:48;17.15;;;3.83;;
69463;SDS011;56665;41.106;16.688;2022-09-09T07:13:52;12.55;;;3.83;;
69463;SDS011;56665;41.106;16.688;2022-09-09T07:16:57;21.20;;;4.20;;
69463;SDS011;56665;41.106;16.688;2022-09-09T07:20:02;20.67;;;4.47;;
69463;SDS011;56665;41.106;16.688;2022-09-09T07:23:07;16.48;;;3.85;;
69463;SDS011;56665;41.106;16.688;2022-09-09T07:26:13;18.23;;;3.83;;
69463;SDS011;56665;41.106;16.688;2022-09-09T07:29:19;16.23;;;3.80;;
69463;SDS011;56665;41.106;16.688;2022-09-09T07:32:23;14.05;;;3.47;;
69463;SDS011;56665;41.106;16.688;2022-09-09T07:35:33;14.85;;;3.58;;
69463;SDS011;56665;41.106;16.688;2022-09-09T07:38:41;13.73;;;3.60;;
69463;SDS011;56665;41.106;16.688;2022-09-09T07:41:50;15.70;;;3.53;;
69463;SDS011;56665;41.106;16.688;2022-09-09T07:44:58;18.27;;;3.80;;
69463;SDS011;56665;41.106;16.688;2022-09-09T07:48:02;16.17;;;3.75;;
69463;SDS011;56665;41.106;16.688;2022-09-09T07:51:11;18.08;;;3.67;;
69463;SDS011;56665;41.106;16.688;2022-09-09T07:54:21;16.48;;;3.78;;
69463;SDS011;56665;41.106;16.688;2022-09-09T07:57:29;13.63;;;3.75;;
69463;SDS011;56665;41.106;16.688;2022-09-09T08:00:35;15.23;;;3.80;;
69463;SDS011;56665;41.106;16.688;2022-09-09T08:03:39;20.85;;;4.13;;
69463;SDS011;56665;41.106;16.688;2022-09-09T08:06:44;17.27;;;4.15;;
69463;SDS011;56665;41.106;16.688;2022-09-09T08:09:57;15.02;;;4.07;;
69463;SDS011;56665;41.106;16.688;2022-09-09T08:13:06;28.35;;;4.35;;
69463;SDS011;56665;41.106;16.688;2022-09-09T08:16:14;19.15;;;4.20;;
69463;SDS011;56665;41.106;16.688;2022-09-09T08:19:25;17.38;;;4.38;;
69463;SDS011;56665;41.106;16.688;2022-09-09T08:22:30;17.58;;;4.32;;
69463;SDS011;56665;41.106;16.688;2022-09-09T08:25:35;18.02;;;4.28;;
69463;SDS011;56665;41.106;16.688;2022-09-09T08:28:40;18.27;;;4.18;;
69463;SDS011;56665;41.106;16.688;2022-09-09T08:31:50;17.63;;;4.30;;
69463;SDS011;56665;41.106;16.688;2022-09-09T08:34:58;23.02;;;4.05;;
69463;SDS011;56665;41.106;16.688;2022-09-09T08:38:01;21.48;;;4.75;;
69463;SDS011;56665;41.106;16.688;2022-09-09T08:52:15;17.45;;;4.25;;
69463;SDS011;56665;41.106;16.688;2022-09-09T08:55:41;20.13;;;4.80;;
69463;SDS011;56665;41.106;16.688;2022-09-09T08:58:54;18.83;;;4.65;;
69463;SDS011;56665;41.106;16.688;2022-09-09T09:02:23;16.42;;;4.03;;
69463;SDS011;56665;41.106;16.688;2022-09-09T09:09:31;17.70;;;4.32;;
69463;SDS011;56665;41.106;16.688;2022-09-09T09:19:29;24.42;;;5.75;;
69463;SDS011;56665;41.106;16.688;2022-09-09T09:22:58;21.88;;;5.88;;
69463;SDS011;56665;41.106;16.688;2022-09-09T09:26:05;16.98;;;5.43;;
69463;SDS011;56665;41.106;16.688;2022-09-09T09:29:14;15.45;;;4.78;;
69463;SDS011;56665;41.106;16.688;2022-09-09T09:32:20;21.38;;;5.85;;
69463;SDS011;56665;41.106;16.688;2022-09-09T09:35:26;17.88;;;6.07;;
69463;SDS011;56665;41.106;16.688;2022-09-09T09:38:29;20.05;;;5.70;;
69463;SDS011;56665;41.106;16.688;2022-09-09T09:41:38;18.50;;;5.80;;
69463;SDS011;56665;41.106;16.688;2022-09-09T09:44:44;21.48;;;5.65;;
69463;SDS011;56665;41.106;16.688;2022-09-09T09:47:58;16.58;;;5.53;;
69463;SDS011;56665;41.106;16.688;2022-09-09T09:51:10;18.33;;;5.45;;
69463;SDS011;56665;41.106;16.688;2022-09-09T09:54:26;17.98;;;5.38;;
69463;SDS011;56665;41.106;16.688;2022-09-09T09:57:35;18.42;;;4.68;;
69463;SDS011;56665;41.106;16.688;2022-09-09T10:00:51;19.27;;;5.18;;
69463;SDS011;56665;41.106;16.688;2022-09-09T10:04:12;17.13;;;5.40;;
69463;SDS011;56665;41.106;16.688;2022-09-09T10:07:20;21.02;;;5.28;;
69463;SDS011;56665;41.106;16.688;2022-09-09T10:10:27;17.20;;;4.90;;
69463;SDS011;56665;41.106;16.688;2022-09-09T10:24:20;16.40;;;5.28;;
69463;SDS011;56665;41.106;16.688;2022-09-09T10:31:27;21.90;;;5.28;;
69463;SDS011;56665;41.106;16.688;2022-09-09T10:34:55;14.23;;;5.00;;
69463;SDS011;56665;41.106;16.688;2022-09-09T10:42:05;20.58;;;5.38;;
69463;SDS011;56665;41.106;16.688;2022-09-09T10:45:29;16.35;;;4.80;;
69463;SDS011;56665;41.106;16.688;2022-09-09T10:56:16;21.88;;;5.18;;
69463;SDS011;56665;41.106;16.688;2022-09-09T10:59:00;18.45;;;5.18;;
69463;SDS011;56665;41.106;16.688;2022-09-09T11:05:18;16.17;;;5.85;;
69463;SDS011;56665;41.106;16.688;2022-09-09T11:08:25;13.23;;;4.82;;
69463;SDS011;56665;41.106;16.688;2022-09-09T11:11:34;13.95;;;4.80;;
69463;SDS011;56665;41.106;16.688;2022-09-09T11:14:57;13.57;;;4.32;;
69463;SDS011;56665;41.106;16.688;2022-09-09T11:18:09;19.67;;;5.35;;
69463;SDS011;56665;41.106;16.688;2022-09-09T11:21:22;18.88;;;4.82;;
69463;SDS011;56665;41.106;16.688;2022-09-09T11:24:33;18.70;;;4.63;;
69463;SDS011;56665;41.106;16.688;2022-09-09T11:41:34;19.05;;;5.78;;
69463;SDS011;56665;41.106;16.688;2022-09-09T11:44:40;23.92;;;5.32;;
69463;SDS011;56665;41.106;16.688;2022-09-09T11:47:54;16.05;;;5.07;;
69463;SDS011;56665;41.106;16.688;2022-09-09T11:57:35;14.98;;;5.03;;
69463;SDS011;56665;41.106;16.688;2022-09-09T12:00:44;17.58;;;5.22;;
69463;SDS011;56665;41.106;16.688;2022-09-09T12:03:50;18.88;;;5.80;;
69463;SDS011;56665;41.106;16.688;2022-09-09T12:13:25;16.65;;;6.28;;
69463;SDS011;56665;41.106;16.688;2022-09-09T12:16:34;21.17;;;5.80;;
69463;SDS011;56665;41.106;16.688;2022-09-09T12:19:40;16.55;;;5.72;;
69463;SDS011;56665;41.106;16.688;2022-09-09T12:29:43;17.80;;;5.18;;
69463;SDS011;56665;41.106;16.688;2022-09-09T12:33:10;18.58;;;4.93;;
69463;SDS011;56665;41.106;16.688;2022-09-09T12:36:24;16.95;;;4.95;;
69463;SDS011;56665;41.106;16.688;2022-09-09T12:39:33;18.83;;;4.95;;
69463;SDS011;56665;41.106;16.688;2022-09-09T12:42:41;16.77;;;5.25;;
69463;SDS011;56665;41.106;16.688;2022-09-09T12:45:44;23.92;;;4.97;;
69463;SDS011;56665;41.106;16.688;2022-09-09T12:48:48;22.75;;;6.00;;
69463;SDS011;56665;41.106;16.688;2022-09-09T12:51:52;16.15;;;5.20;;
69463;SDS011;56665;41.106;16.688;2022-09-09T12:54:57;19.15;;;4.78;;
69463;SDS011;56665;41.106;16.688;2022-09-09T12:58:03;28.80;;;7.28;;
69463;SDS011;56665;41.106;16.688;2022-09-09T13:01:18;15.50;;;5.30;;
69463;SDS011;56665;41.106;16.688;2022-09-09T13:04:25;18.83;;;5.07;;
69463;SDS011;56665;41.106;16.688;2022-09-09T13:07:29;23.40;;;5.07;;
69463;SDS011;56665;41.106;16.688;2022-09-09T13:10:35;21.35;;;5.30;;
69463;SDS011;56665;41.106;16.688;2022-09-09T13:13:58;17.27;;;4.70;;
69463;SDS011;56665;41.106;16.688;2022-09-09T13:17:04;16.80;;;4.85;;
69463;SDS011;56665;41.106;16.688;2022-09-09T13:20:18;20.83;;;4.97;;
69463;SDS011;56665;41.106;16.688;2022-09-09T13:23:25;19.40;;;5.05;;
69463;SDS011;56665;41.106;16.688;2022-09-09T13:26:32;24.33;;;5.05;;
69463;SDS011;56665;41.106;16.688;2022-09-09T13:29:37;15.43;;;4.78;;
69463;SDS011;56665;41.106;16.688;2022-09-09T13:32:43;18.35;;;4.60;;
69463;SDS011;56665;41.106;16.688;2022-09-09T13:39:02;20.27;;;4.78;;
69463;SDS011;56665;41.106;16.688;2022-09-09T13:42:19;24.00;;;5.03;;
69463;SDS011;56665;41.106;16.688;2022-09-09T13:45:28;14.82;;;4.72;;
69463;SDS011;56665;41.106;16.688;2022-09-09T13:48:32;19.75;;;4.85;;
69463;SDS011;56665;41.106;16.688;2022-09-09T13:51:40;13.13;;;4.55;;
69463;SDS011;56665;41.106;16.688;2022-09-09T13:54:50;17.75;;;4.82;;
69463;SDS011;56665;41.106;16.688;2022-09-09T13:57:57;20.10;;;4.50;;
69463;SDS011;56665;41.106;16.688;2022-09-09T14:01:04;19.98;;;4.53;;
69463;SDS011;56665;41.106;16.688;2022-09-09T14:04:07;19.58;;;4.90;;
69463;SDS011;56665;41.106;16.688;2022-09-09T14:07:13;15.88;;;4.75;;
69463;SDS011;56665;41.106;16.688;2022-09-09T14:10:19;18.92;;;5.35;;
69463;SDS011;56665;41.106;16.688;2022-09-09T14:13:24;21.67;;;5.50;;
69463;SDS011;56665;41.106;16.688;2022-09-09T14:16:28;21.58;;;5.68;;
69463;SDS011;56665;41.106;16.688;2022-09-09T14:19:32;18.40;;;5.07;;
69463;SDS011;56665;41.106;16.688;2022-09-09T14:22:36;15.40;;;5.00;;
69463;SDS011;56665;41.106;16.688;2022-09-09T14:25:40;24.02;;;5.43;;
69463;SDS011;56665;41.106;16.688;2022-09-09T14:28:44;16.08;;;4.75;;
69463;SDS011;56665;41.106;16.688;2022-09-09T14:31:49;21.33;;;5.05;;
69463;SDS011;56665;41.106;16.688;2022-09-09T14:34:53;17.95;;;5.60;;
69463;SDS011;56665;41.106;16.688;2022-09-09T14:37:57;22.30;;;5.85;;
69463;SDS011;56665;41.106;16.688;2022-09-09T14:41:00;18.73;;;5.00;;
69463;SDS011;56665;41.106;16.688;2022-09-09T14:44:08;22.88;;;5.40;;
69463;SDS011;56665;41.106;16.688;2022-09-09T14:47:12;18.58;;;5.20;;
69463;SDS011;56665;41.106;16.688;2022-09-09T14:50:16;20.25;;;5.20;;
69463;SDS011;56665;41.106;16.688;2022-09-09T14:53:23;22.77;;;5.53;;
69463;SDS011;56665;41.106;16.688;2022-09-09T14:56:29;16.70;;;5.57;;
69463;SDS011;56665;41.106;16.688;2022-09-09T14:59:35;18.30;;;5.75;;
69463;SDS011;56665;41.106;16.688;2022-09-09T15:02:39;17.55;;;5.20;;
69463;SDS011;56665;41.106;16.688;2022-09-09T15:05:43;17.00;;;5.57;;
69463;SDS011;56665;41.106;16.688;2022-09-09T15:08:49;17.73;;;5.68;;
69463;SDS011;56665;41.106;16.688;2022-09-09T15:11:55;20.85;;;6.25;;
69463;SDS011;56665;41.106;16.688;2022-09-09T15:14:59;17.98;;;5.68;;
69463;SDS011;56665;41.106;16.688;2022-09-09T15:18:03;17.65;;;5.70;;
69463;SDS011;56665;41.106;16.688;2022-09-09T15:21:06;18.90;;;5.78;;
69463;SDS011;56665;41.106;16.688;2022-09-09T15:24:10;22.55;;;6.05;;
69463;SDS011;56665;41.106;16.688;2022-09-09T15:27:14;15.77;;;5.90;;
69463;SDS011;56665;41.106;16.688;2022-09-09T15:30:18;20.10;;;6.15;;
69463;SDS011;56665;41.106;16.688;2022-09-09T15:33:22;23.70;;;5.60;;
69463;SDS011;56665;41.106;16.688;2022-09-09T15:36:30;14.60;;;5.22;;
69463;SDS011;56665;41.106;16.688;2022-09-09T15:39:45;19.33;;;8.30;;
69463;SDS011;56665;41.106;16.688;2022-09-09T15:42:49;19.60;;;5.78;;
69463;SDS011;56665;41.106;16.688;2022-09-09T15:45:54;15.05;;;5.38;;
69463;SDS011;56665;41.106;16.688;2022-09-09T15:49:15;12.43;;;5.05;;
69463;SDS011;56665;41.106;16.688;2022-09-09T15:52:22;13.15;;;6.10;;
69463;SDS011;56665;41.106;16.688;2022-09-09T15:55:26;16.75;;;5.55;;
69463;SDS011;56665;41.106;16.688;2022-09-09T15:58:30;22.33;;;6.72;;
69463;SDS011;56665;41.106;16.688;2022-09-09T16:01:34;18.77;;;6.35;;
69463;SDS011;56665;41.106;16.688;2022-09-09T16:04:38;15.07;;;6.63;;
69463;SDS011;56665;41.106;16.688;2022-09-09T16:07:43;18.67;;;5.47;;
69463;SDS011;56665;41.106;16.688;2022-09-09T16:10:48;18.98;;;5.82;;
69463;SDS011;56665;41.106;16.688;2022-09-09T16:13:54;13.40;;;5.10;;
69463;SDS011;56665;41.106;16.688;2022-09-09T16:16:59;13.88;;;5.57;;
69463;SDS011;56665;41.106;16.688;2022-09-09T16:20:04;15.65;;;4.90;;
69463;SDS011;56665;41.106;16.688;2022-09-09T16:23:10;18.80;;;5.50;;
69463;SDS011;56665;41.106;16.688;2022-09-09T16:26:14;16.48;;;5.07;;
69463;SDS011;56665;41.106;16.688;2022-09-09T16:29:19;21.48;;;5.68;;
69463;SDS011;56665;41.106;16.688;2022-09-09T16:32:24;16.45;;;5.55;;
69463;SDS011;56665;41.106;16.688;2022-09-09T16:35:28;19.63;;;6.22;;
69463;SDS011;56665;41.106;16.688;2022-09-09T16:38:33;15.88;;;5.88;;
69463;SDS011;56665;41.106;16.688;2022-09-09T16:41:39;18.90;;;6.13;;
69463;SDS011;56665;41.106;16.688;2022-09-09T16:44:43;21.80;;;6.22;;
69463;SDS011;56665;41.106;16.688;2022-09-09T16:47:47;16.17;;;5.75;;
69463;SDS011;56665;41.106;16.688;2022-09-09T16:51:00;19.58;;;5.88;;
69463;SDS011;56665;41.106;16.688;2022-09-09T16:54:05;16.95;;;6.10;;
69463;SDS011;56665;41.106;16.688;2022-09-09T16:57:10;19.15;;;6.85;;
69463;SDS011;56665;41.106;16.688;2022-09-09T17:00:14;17.20;;;5.95;;
69463;SDS011;56665;41.106;16.688;2022-09-09T17:03:19;22.77;;;6.70;;
69463;SDS011;56665;41.106;16.688;2022-09-09T17:06:24;15.68;;;5.82;;
69463;SDS011;56665;41.106;16.688;2022-09-09T17:09:28;16.90;;;6.47;;
69463;SDS011;56665;41.106;16.688;2022-09-09T17:12:32;15.20;;;6.40;;
69463;SDS011;56665;41.106;16.688;2022-09-09T17:15:39;17.83;;;6.65;;
69463;SDS011;56665;41.106;16.688;2022-09-09T17:18:45;19.13;;;6.38;;
69463;SDS011;56665;41.106;16.688;2022-09-09T17:21:49;16.58;;;6.00;;
69463;SDS011;56665;41.106;16.688;2022-09-09T17:24:53;15.75;;;6.22;;
69463;SDS011;56665;41.106;16.688;2022-09-09T17:27:58;18.17;;;6.70;;
69463;SDS011;56665;41.106;16.688;2022-09-09T17:31:04;15.27;;;6.82;;
69463;SDS011;56665;41.106;16.688;2022-09-09T17:34:10;18.48;;;6.65;;
69463;SDS011;56665;41.106;16.688;2022-09-09T17:37:14;18.17;;;6.30;;
69463;SDS011;56665;41.106;16.688;2022-09-09T17:40:17;23.13;;;6.57;;
69463;SDS011;56665;41.106;16.688;2022-09-09T17:43:21;17.95;;;6.75;;
69463;SDS011;56665;41.106;16.688;2022-09-09T17:46:29;21.40;;;6.35;;
69463;SDS011;56665;41.106;16.688;2022-09-09T17:49:45;18.75;;;6.20;;
69463;SDS011;56665;41.106;16.688;2022-09-09T17:52:52;19.75;;;6.93;;
69463;SDS011;56665;41.106;16.688;2022-09-09T17:56:03;16.40;;;5.95;;
69463;SDS011;56665;41.106;16.688;2022-09-09T17:59:09;18.77;;;5.68;;
69463;SDS011;56665;41.106;16.688;2022-09-09T18:02:15;14.77;;;4.72;;
69463;SDS011;56665;41.106;16.688;2022-09-09T18:05:19;15.73;;;5.05;;
69463;SDS011;56665;41.106;16.688;2022-09-09T18:08:23;18.52;;;4.80;;
69463;SDS011;56665;41.106;16.688;2022-09-09T18:11:28;12.55;;;4.50;;
69463;SDS011;56665;41.106;16.688;2022-09-09T18:14:34;14.75;;;4.07;;
69463;SDS011;56665;41.106;16.688;2022-09-09T18:17:38;14.10;;;3.63;;
69463;SDS011;56665;41.106;16.688;2022-09-09T18:20:41;12.65;;;4.25;;
69463;SDS011;56665;41.106;16.688;2022-09-09T18:23:46;8.70;;;3.58;;
69463;SDS011;56665;41.106;16.688;2022-09-09T18:26:52;14.68;;;3.55;;
69463;SDS011;56665;41.106;16.688;2022-09-09T18:29:57;12.38;;;2.80;;
69463;SDS011;56665;41.106;16.688;2022-09-09T18:33:01;12.65;;;3.20;;
69463;SDS011;56665;41.106;16.688;2022-09-09T18:36:14;11.93;;;3.22;;
69463;SDS011;56665;41.106;16.688;2022-09-09T18:39:27;9.98;;;3.10;;
69463;SDS011;56665;41.106;16.688;2022-09-09T18:42:32;9.93;;;2.95;;
69463;SDS011;56665;41.106;16.688;2022-09-09T18:45:36;7.72;;;2.55;;
69463;SDS011;56665;41.106;16.688;2022-09-09T18:48:40;9.60;;;2.55;;
69463;SDS011;56665;41.106;16.688;2022-09-09T18:51:45;13.20;;;2.60;;
69463;SDS011;56665;41.106;16.688;2022-09-09T18:54:51;8.50;;;2.60;;
69463;SDS011;56665;41.106;16.688;2022-09-09T18:57:54;10.18;;;3.28;;
69463;SDS011;56665;41.106;16.688;2022-09-09T19:01:02;9.02;;;2.60;;
69463;SDS011;56665;41.106;16.688;2022-09-09T19:04:07;9.60;;;2.53;;
69463;SDS011;56665;41.106;16.688;2022-09-09T19:07:11;8.32;;;2.63;;
69463;SDS011;56665;41.106;16.688;2022-09-09T19:10:14;11.77;;;2.78;;
69463;SDS011;56665;41.106;16.688;2022-09-09T19:13:18;12.30;;;2.70;;
69463;SDS011;56665;41.106;16.688;2022-09-09T19:16:23;7.40;;;2.63;;
69463;SDS011;56665;41.106;16.688;2022-09-09T19:19:30;9.98;;;3.25;;
69463;SDS011;56665;41.106;16.688;2022-09-09T19:22:35;10.13;;;3.30;;
69463;SDS011;56665;41.106;16.688;2022-09-09T19:25:39;10.90;;;3.42;;
69463;SDS011;56665;41.106;16.688;2022-09-09T19:28:43;7.25;;;3.42;;
69463;SDS011;56665;41.106;16.688;2022-09-09T19:31:52;13.68;;;3.45;;
69463;SDS011;56665;41.106;16.688;2022-09-09T19:35:00;10.52;;;3.30;;
69463;SDS011;56665;41.106;16.688;2022-09-09T19:38:04;9.27;;;3.20;;
69463;SDS011;56665;41.106;16.688;2022-09-09T19:41:08;9.98;;;2.80;;
69463;SDS011;56665;41.106;16.688;2022-09-09T19:44:16;10.43;;;3.25;;
69463;SDS011;56665;41.106;16.688;2022-09-09T19:47:20;8.85;;;2.97;;
69463;SDS011;56665;41.106;16.688;2022-09-09T19:50:25;13.52;;;2.95;;
69463;SDS011;56665;41.106;16.688;2022-09-09T19:53:31;9.60;;;2.90;;
69463;SDS011;56665;41.106;16.688;2022-09-09T19:56:39;10.98;;;2.75;;
69463;SDS011;56665;41.106;16.688;2022-09-09T19:59:43;9.88;;;2.90;;
69463;SDS011;56665;41.106;16.688;2022-09-09T20:02:47;6.63;;;2.65;;
69463;SDS011;56665;41.106;16.688;2022-09-09T20:05:53;12.15;;;3.10;;
69463;SDS011;56665;41.106;16.688;2022-09-09T20:08:57;10.77;;;3.85;;
69463;SDS011;56665;41.106;16.688;2022-09-09T20:12:00;13.30;;;2.80;;
69463;SDS011;56665;41.106;16.688;2022-09-09T20:15:05;10.68;;;3.25;;
69463;SDS011;56665;41.106;16.688;2022-09-09T20:18:09;8.02;;;2.72;;
69463;SDS011;56665;41.106;16.688;2022-09-09T20:21:14;9.85;;;3.38;;